Terminal Aerodrome Forecast
Issued by NWS

Home | Current Version | Previous Version | Text Only | Print | Product List | Glossary On
Versions: 1 2 3 4 5 6 7 8 9 10 11 12 13
758
FTUS42 KTAE 281120
TAFABY
TAF
KABY 281120Z 2812/2912 07003KT P6SM BKN250
     FM281400 10009KT P6SM SCT035 SCT050=

USA.gov is the U.S. government's official web portal to all federal, state and local government web resources and services.